createdAt,value
2019-02-23T00:00:34.296Z,10.60
2019-02-23T00:03:01.587Z,10.60
2019-02-23T00:05:28.889Z,10.50
2019-02-23T00:07:56.203Z,10.50
2019-02-23T00:10:23.482Z,10.50
2019-02-23T00:12:50.767Z,10.40
2019-02-23T00:15:18.103Z,10.40
2019-02-23T00:17:45.391Z,10.40
2019-02-23T00:20:12.703Z,10.40
2019-02-23T00:22:40.051Z,10.40
2019-02-23T00:25:07.422Z,10.40
2019-02-23T00:27:34.739Z,10.30
2019-02-23T00:30:02.127Z,10.30
2019-02-23T00:32:29.420Z,10.30
2019-02-23T00:34:56.716Z,10.30
2019-02-23T00:37:24.028Z,10.20
2019-02-23T00:40:10.795Z,10.30
2019-02-23T00:42:38.174Z,9.70
2019-02-23T00:45:05.924Z,10.30
2019-02-23T00:47:33.279Z,10.30
2019-02-23T00:50:00.596Z,10.20
2019-02-23T00:52:27.908Z,10.20
2019-02-23T00:54:55.275Z,10.20
2019-02-23T00:57:22.551Z,10.10
2019-02-23T00:59:49.871Z,10.10
2019-02-23T01:02:17.169Z,10.10
2019-02-23T01:04:44.450Z,10.10
2019-02-23T01:07:11.727Z,10.00
2019-02-23T01:09:39.041Z,10.00
2019-02-23T01:12:06.363Z,10.00
2019-02-23T01:14:33.671Z,10.00
2019-02-23T01:17:00.987Z,9.90
2019-02-23T01:19:28.319Z,9.90
2019-02-23T01:21:55.716Z,9.90
2019-02-23T01:24:23.006Z,9.90
2019-02-23T01:26:50.307Z,9.90
2019-02-23T01:29:17.586Z,9.90
2019-02-23T01:31:44.863Z,9.90
2019-02-23T01:34:12.170Z,9.90
2019-02-23T01:36:39.462Z,9.80
2019-02-23T01:39:06.770Z,9.80
2019-02-23T01:41:34.119Z,9.80
2019-02-23T01:44:15.304Z,9.80
2019-02-23T01:46:42.931Z,9.20
2019-02-23T01:49:10.224Z,9.80
2019-02-23T01:51:37.516Z,9.70
2019-02-23T01:54:04.834Z,9.70
2019-02-23T01:56:32.121Z,9.70
2019-02-23T01:58:59.388Z,9.70
2019-02-23T02:01:26.699Z,9.60
2019-02-23T02:03:54.000Z,9.60
2019-02-23T02:06:21.360Z,9.60
2019-02-23T02:08:48.774Z,9.60
2019-02-23T02:11:16.585Z,9.60
2019-02-23T02:13:43.881Z,9.50
2019-02-23T02:16:11.283Z,9.60
2019-02-23T02:18:38.564Z,9.50
2019-02-23T02:21:06.177Z,9.50
2019-02-23T02:23:33.480Z,9.50
2019-02-23T02:26:20.232Z,9.40
2019-02-23T02:28:47.575Z,9.80
2019-02-23T02:31:14.860Z,9.40
2019-02-23T02:34:05.983Z,9.40
2019-02-23T02:36:33.348Z,9.40
2019-02-23T02:39:00.638Z,9.30
2019-02-23T02:41:27.987Z,9.30
2019-02-23T02:43:55.286Z,9.30
2019-02-23T02:46:22.625Z,9.40
2019-02-23T02:48:49.976Z,9.40
2019-02-23T02:51:17.279Z,9.30
2019-02-23T02:53:44.691Z,9.20
2019-02-23T02:56:12.008Z,9.30
2019-02-23T02:58:39.295Z,9.20
2019-02-23T03:01:06.589Z,9.20
2019-02-23T03:03:53.374Z,9.20
2019-02-23T03:06:20.778Z,8.50
2019-02-23T03:08:48.127Z,9.20
2019-02-23T03:11:15.512Z,9.20
2019-02-23T03:13:42.817Z,9.20
2019-02-23T03:16:10.141Z,9.10
2019-02-23T03:18:37.726Z,9.10
2019-02-23T03:21:05.031Z,9.10
2019-02-23T03:23:32.427Z,9.10
2019-02-23T03:25:59.750Z,9.10
2019-02-23T03:28:27.031Z,9.20
2019-02-23T03:30:54.308Z,9.00
2019-02-23T03:33:21.659Z,9.00
2019-02-23T03:35:49.054Z,9.00
2019-02-23T03:38:16.359Z,9.00
2019-02-23T03:40:43.701Z,9.00
2019-02-23T03:43:12.699Z,8.90
2019-02-23T03:45:39.975Z,9.00
2019-02-23T03:48:07.294Z,8.90
2019-02-23T03:50:34.595Z,8.90
2019-02-23T03:53:01.924Z,8.90
2019-02-23T03:55:29.363Z,8.80
2019-02-23T03:57:56.687Z,8.90
2019-02-23T04:00:24.082Z,8.80
2019-02-23T04:02:51.399Z,8.80
2019-02-23T04:05:38.177Z,8.80
2019-02-23T04:08:07.152Z,8.00
2019-02-23T04:10:34.524Z,8.80
2019-02-23T04:13:01.904Z,8.80
2019-02-23T04:15:48.703Z,8.80
2019-02-23T04:18:16.157Z,8.10
2019-02-23T04:20:43.481Z,8.80
2019-02-23T04:23:10.828Z,8.70
2019-02-23T04:25:57.741Z,8.70
2019-02-23T04:28:25.087Z,8.20
2019-02-23T04:30:52.367Z,8.70
2019-02-23T04:33:19.667Z,8.70
2019-02-23T04:36:06.478Z,8.70
2019-02-23T04:38:33.796Z,8.00
2019-02-23T04:41:14.436Z,8.70
2019-02-23T04:43:44.116Z,7.90
2019-02-23T04:46:10.928Z,8.70
2019-02-23T04:48:57.702Z,8.60
2019-02-23T04:51:24.999Z,8.20
2019-02-23T04:54:11.767Z,8.70
2019-02-23T04:56:39.103Z,8.40
2019-02-23T04:59:06.508Z,8.60
2019-02-23T05:01:33.833Z,8.60
2019-02-23T05:04:01.145Z,8.60
2019-02-23T05:06:28.429Z,8.50
2019-02-23T05:08:55.720Z,8.50
2019-02-23T05:11:23.003Z,8.50
2019-02-23T05:13:50.288Z,8.50
2019-02-23T05:16:17.887Z,8.50
2019-02-23T05:18:45.174Z,8.50
2019-02-23T05:21:12.449Z,8.40
2019-02-23T05:23:59.242Z,8.40
2019-02-23T05:26:26.625Z,8.20
2019-02-23T05:28:54.009Z,8.40
2019-02-23T05:31:22.217Z,8.30
2019-02-23T05:33:49.839Z,8.30
2019-02-23T05:36:17.158Z,8.20
2019-02-23T05:38:44.466Z,8.20
2019-02-23T05:41:11.776Z,8.30
2019-02-23T05:43:39.200Z,8.30
2019-02-23T05:46:06.601Z,8.20
2019-02-23T05:48:53.623Z,8.20
2019-02-23T05:51:20.990Z,7.70
2019-02-23T05:53:48.415Z,8.20
2019-02-23T05:56:16.425Z,8.20
2019-02-23T05:58:43.944Z,8.20
2019-02-23T06:01:11.643Z,8.20
2019-02-23T06:03:38.999Z,8.20
2019-02-23T06:06:25.804Z,8.10
2019-02-23T06:08:53.222Z,7.40
2019-02-23T06:11:20.779Z,8.10
2019-02-23T06:13:48.135Z,8.10
2019-02-23T06:16:15.530Z,8.10
2019-02-23T06:18:42.827Z,8.10
2019-02-23T06:21:10.130Z,8.00
2019-02-23T06:23:37.511Z,7.90
2019-02-23T06:26:04.909Z,7.90
2019-02-23T06:28:32.194Z,7.90
2019-02-23T06:30:59.572Z,7.90
2019-02-23T06:33:26.892Z,7.90
2019-02-23T06:35:54.193Z,7.80
2019-02-23T06:38:21.585Z,7.90
2019-02-23T06:40:48.964Z,7.80
2019-02-23T06:43:16.253Z,7.80
2019-02-23T06:45:43.578Z,7.80
2019-02-23T06:48:10.891Z,7.80
2019-02-23T06:50:57.669Z,7.80
2019-02-23T06:53:24.986Z,7.50
2019-02-23T06:55:52.306Z,7.80
2019-02-23T06:58:19.683Z,7.80
2019-02-23T07:00:46.977Z,7.70
2019-02-23T07:03:14.321Z,7.70
2019-02-23T07:05:41.648Z,7.80
2019-02-23T07:08:08.996Z,7.70
2019-02-23T07:10:36.323Z,7.70
2019-02-23T07:13:23.099Z,7.80
2019-02-23T07:15:50.423Z,7.60
2019-02-23T07:18:17.728Z,7.60
2019-02-23T07:20:45.056Z,7.50
2019-02-23T07:23:13.036Z,7.70
2019-02-23T07:25:40.407Z,7.70
2019-02-23T07:28:07.788Z,7.70
2019-02-23T07:30:35.230Z,7.70
2019-02-23T07:33:02.587Z,7.70
2019-02-23T07:35:30.007Z,7.80
2019-02-23T07:37:57.340Z,7.70
2019-02-23T07:40:24.659Z,7.70
2019-02-23T07:42:51.975Z,7.80
2019-02-23T07:45:19.286Z,7.80
2019-02-23T07:47:46.582Z,7.80
2019-02-23T07:50:14.140Z,7.90
2019-02-23T07:52:41.503Z,7.90
2019-02-23T07:55:08.948Z,8.00
2019-02-23T07:57:36.387Z,8.30
2019-02-23T08:00:03.736Z,8.00
2019-02-23T08:02:31.248Z,8.40
2019-02-23T08:04:58.603Z,8.10
2019-02-23T08:07:25.952Z,8.20
2019-02-23T08:09:53.307Z,8.20
2019-02-23T08:12:20.747Z,8.20
2019-02-23T08:14:48.135Z,8.20
2019-02-23T08:17:15.579Z,8.30
2019-02-23T08:19:43.056Z,8.30
2019-02-23T08:22:11.313Z,8.30
2019-02-23T08:24:59.274Z,8.40
2019-02-23T08:27:26.738Z,8.10
2019-02-23T08:29:54.092Z,8.50
2019-02-23T08:32:21.519Z,8.50
2019-02-23T08:34:48.880Z,8.50
2019-02-23T08:37:16.240Z,8.50
2019-02-23T08:39:43.754Z,8.60
2019-02-23T08:42:11.188Z,8.60
2019-02-23T08:44:58.101Z,8.60
2019-02-23T08:47:26.982Z,8.00
2019-02-23T08:49:54.387Z,8.70
2019-02-23T08:52:48.543Z,8.80
2019-02-23T08:55:10.544Z,8.40
2019-02-23T08:57:37.900Z,8.90
2019-02-23T09:00:07.475Z,9.00
2019-02-23T09:02:34.828Z,9.00
2019-02-23T09:05:02.169Z,9.00
2019-02-23T09:07:29.595Z,9.00
2019-02-23T09:09:56.920Z,9.10
2019-02-23T09:12:24.985Z,9.10
2019-02-23T09:15:11.875Z,9.10
2019-02-23T09:17:39.340Z,9.10
2019-02-23T09:20:06.946Z,9.30
2019-02-23T09:22:34.420Z,9.30
2019-02-23T09:25:01.765Z,9.30
2019-02-23T09:27:49.010Z,9.40
2019-02-23T09:30:16.553Z,9.00
2019-02-23T09:32:43.990Z,9.40
2019-02-23T09:35:11.369Z,9.40
2019-02-23T09:37:38.847Z,9.50
2019-02-23T09:40:07.423Z,9.60
2019-02-23T09:42:34.786Z,9.70
2019-02-23T09:45:02.137Z,9.70
2019-02-23T09:47:29.563Z,9.80
2019-02-23T09:49:56.984Z,9.80
2019-02-23T09:52:45.859Z,9.90
2019-02-23T09:55:13.368Z,9.50
2019-02-23T09:57:40.812Z,10.10
2019-02-23T10:00:08.683Z,10.20
2019-02-23T10:02:58.752Z,10.30
2019-02-23T10:05:46.803Z,9.80
2019-02-23T10:08:14.155Z,9.60
2019-02-23T10:10:41.664Z,10.60
2019-02-23T10:13:09.046Z,10.20
2019-02-23T10:15:55.932Z,10.80
2019-02-23T10:18:23.244Z,10.50
2019-02-23T10:20:50.555Z,11.00
2019-02-23T10:23:21.924Z,11.10
2019-02-23T10:25:47.206Z,11.20
2019-02-23T10:28:14.643Z,11.30
2019-02-23T10:31:01.723Z,11.40
2019-02-23T10:33:30.047Z,10.70
2019-02-23T10:35:57.753Z,11.60
2019-02-23T10:38:44.638Z,11.70
2019-02-23T10:41:12.023Z,11.10
2019-02-23T10:43:39.362Z,12.00
2019-02-23T10:46:06.863Z,12.10
2019-02-23T10:48:34.254Z,12.20
2019-02-23T10:51:01.612Z,12.30
2019-02-23T10:53:33.096Z,12.40
2019-02-23T10:56:01.739Z,12.50
2019-02-23T10:58:48.513Z,12.70
2019-02-23T11:01:15.831Z,12.30
2019-02-23T11:03:43.151Z,13.00
2019-02-23T11:06:10.804Z,13.00
2019-02-23T11:08:38.534Z,13.20
2019-02-23T11:11:06.403Z,13.30
2019-02-23T11:13:35.247Z,13.30
2019-02-23T11:16:03.540Z,13.20
2019-02-23T11:18:30.900Z,13.30
2019-02-23T11:20:58.276Z,13.40
2019-02-23T11:23:25.702Z,13.40
2019-02-23T11:25:53.036Z,13.50
2019-02-23T11:28:22.679Z,13.60
2019-02-23T11:30:50.054Z,13.60
2019-02-23T11:33:18.542Z,13.70
2019-02-23T11:35:46.060Z,13.80
2019-02-23T11:38:32.893Z,13.80
2019-02-23T11:41:00.368Z,13.10
2019-02-23T11:43:27.798Z,13.90
2019-02-23T11:45:55.158Z,14.00
2019-02-23T11:48:22.637Z,14.10
2019-02-23T11:50:50.337Z,14.10
2019-02-23T11:53:17.732Z,14.10
2019-02-23T11:55:45.175Z,14.20
2019-02-23T11:58:12.543Z,14.30
2019-02-23T12:00:40.620Z,14.30
2019-02-23T12:03:08.044Z,14.40
2019-02-23T12:05:35.433Z,14.50
2019-02-23T12:08:02.903Z,14.60
2019-02-23T12:10:30.875Z,14.60
2019-02-23T12:12:58.795Z,14.60
2019-02-23T12:15:26.142Z,14.50
2019-02-23T12:17:53.509Z,14.60
2019-02-23T12:20:21.779Z,14.70
2019-02-23T12:22:52.381Z,14.70
2019-02-23T12:25:21.166Z,14.80
2019-02-23T12:27:49.241Z,14.70
2019-02-23T12:30:16.742Z,14.80
2019-02-23T12:32:46.599Z,14.90
2019-02-23T12:35:14.006Z,14.90
2019-02-23T12:37:41.375Z,14.60
2019-02-23T12:40:08.810Z,15.00
2019-02-23T12:42:36.356Z,15.00
2019-02-23T12:45:03.795Z,15.10
2019-02-23T12:47:31.285Z,15.10
2019-02-23T12:49:58.644Z,15.20
2019-02-23T12:52:26.126Z,15.20
2019-02-23T12:54:53.564Z,15.20
2019-02-23T12:57:20.930Z,15.30
2019-02-23T12:59:48.654Z,15.40
2019-02-23T13:02:16.098Z,15.50
2019-02-23T13:04:43.896Z,15.60
2019-02-23T13:07:11.327Z,15.60
2019-02-23T13:09:45.501Z,15.70
2019-02-23T13:12:51.868Z,15.70
2019-02-23T13:15:39.721Z,15.80
2019-02-23T13:18:51.126Z,15.30
2019-02-23T13:22:21.293Z,15.90
2019-02-23T13:25:35.337Z,16.10
2019-02-23T13:28:34.436Z,16.20
2019-02-23T13:31:43.129Z,16.30
2019-02-23T13:35:04.390Z,16.50
2019-02-23T13:38:10.513Z,16.50
2019-02-23T13:41:02.245Z,16.60
2019-02-23T13:43:58.490Z,16.60
2019-02-23T13:47:00.803Z,16.70
2019-02-23T13:49:42.429Z,16.70
2019-02-23T13:52:42.924Z,16.80
2019-02-23T13:56:07.108Z,16.70
2019-02-23T13:58:48.618Z,16.60
2019-02-23T14:02:00.283Z,16.40
2019-02-23T14:04:51.295Z,16.30
2019-02-23T14:07:57.959Z,16.30
2019-02-23T14:10:40.489Z,16.20
2019-02-23T14:13:46.745Z,16.20
2019-02-23T14:16:48.162Z,16.20
2019-02-23T14:19:43.946Z,16.20
2019-02-23T14:22:21.522Z,16.30
2019-02-23T14:25:21.743Z,16.30
2019-02-23T14:28:19.800Z,16.40
2019-02-23T14:31:28.134Z,16.50
2019-02-23T14:34:35.920Z,16.50
2019-02-23T14:37:50.107Z,16.30
2019-02-23T14:40:57.872Z,16.40
2019-02-23T14:43:56.033Z,16.30
2019-02-23T14:47:07.392Z,16.20
2019-02-23T14:50:05.319Z,16.20
2019-02-23T14:52:59.477Z,16.10
2019-02-23T14:55:36.232Z,16.10
2019-02-23T14:58:48.415Z,16.00
2019-02-23T15:01:54.729Z,16.00
2019-02-23T15:05:08.415Z,15.90
2019-02-23T15:08:15.426Z,15.80
2019-02-23T15:11:10.292Z,15.20
2019-02-23T15:14:30.577Z,15.70
2019-02-23T15:17:49.042Z,15.80
2019-02-23T15:24:46.510Z,16.10
2019-02-23T15:27:40.090Z,16.20
2019-02-23T15:30:25.775Z,16.30
2019-02-23T15:33:42.747Z,16.30
2019-02-23T15:36:20.083Z,16.50
2019-02-23T15:39:33.637Z,16.50
2019-02-23T15:42:33.455Z,16.50
2019-02-23T15:45:26.458Z,16.60
2019-02-23T15:48:47.726Z,16.60
2019-02-23T15:51:15.251Z,16.60
2019-02-23T15:53:42.592Z,16.70
2019-02-23T15:56:10.028Z,16.60
2019-02-23T15:58:37.339Z,16.40
2019-02-23T16:01:04.689Z,16.40
2019-02-23T16:03:32.051Z,16.50
2019-02-23T16:05:59.539Z,16.50
2019-02-23T16:08:26.857Z,16.30
2019-02-23T16:10:54.212Z,16.10
2019-02-23T16:13:21.534Z,16.20
2019-02-23T16:15:49.275Z,16.10
2019-02-23T16:18:16.632Z,16.10
2019-02-23T16:20:43.924Z,16.10
2019-02-23T16:23:11.275Z,16.00
2019-02-23T16:25:38.730Z,16.00
2019-02-23T16:28:06.096Z,16.00
2019-02-23T16:30:33.477Z,16.00
2019-02-23T16:33:00.846Z,15.90
2019-02-23T16:35:28.265Z,16.00
2019-02-23T16:37:55.671Z,16.10
2019-02-23T16:40:23.017Z,16.20
2019-02-23T16:42:50.336Z,15.90
2019-02-23T16:45:17.634Z,15.60
2019-02-23T16:47:44.959Z,16.30
2019-02-23T16:50:12.427Z,15.30
2019-02-23T16:52:39.770Z,15.10
2019-02-23T16:55:07.140Z,14.90
2019-02-23T16:57:34.501Z,14.70
2019-02-23T17:00:01.827Z,14.50
2019-02-23T17:02:29.148Z,14.20
2019-02-23T17:04:56.525Z,14.30
2019-02-23T17:07:23.850Z,14.30
2019-02-23T17:09:51.183Z,14.20
2019-02-23T17:12:18.611Z,14.10
2019-02-23T17:14:46.007Z,14.00
2019-02-23T17:17:13.360Z,14.00
2019-02-23T17:19:43.681Z,13.90
2019-02-23T17:22:11.143Z,13.00
2019-02-23T17:24:38.558Z,13.80
2019-02-23T17:27:05.918Z,13.80
2019-02-23T17:29:33.303Z,13.70
2019-02-23T17:32:00.625Z,13.60
2019-02-23T17:34:29.314Z,13.60
2019-02-23T17:36:56.607Z,13.60
2019-02-23T17:39:24.032Z,13.50
2019-02-23T17:41:51.449Z,13.40
2019-02-23T17:44:19.016Z,13.40
2019-02-23T17:46:48.516Z,13.40
2019-02-23T17:49:15.683Z,13.30
2019-02-23T17:51:43.070Z,13.30
2019-02-23T17:54:10.398Z,13.20
2019-02-23T17:56:37.852Z,13.10
2019-02-23T17:59:05.232Z,13.10
2019-02-23T18:01:32.558Z,13.00
2019-02-23T18:03:59.872Z,12.90
2019-02-23T18:06:27.175Z,12.90
2019-02-23T18:08:54.562Z,12.80
2019-02-23T18:11:21.871Z,12.80
2019-02-23T18:13:49.871Z,12.80
2019-02-23T18:16:17.245Z,12.70
2019-02-23T18:18:44.683Z,12.70
2019-02-23T18:21:12.108Z,12.60
2019-02-23T18:23:39.483Z,12.60
2019-02-23T18:26:07.275Z,12.50
2019-02-23T18:28:34.586Z,12.50
2019-02-23T18:31:01.932Z,12.50
2019-02-23T18:33:29.285Z,12.40
2019-02-23T18:35:56.686Z,12.30
2019-02-23T18:38:24.063Z,12.30
2019-02-23T18:40:51.405Z,12.30
2019-02-23T18:43:18.771Z,12.30
2019-02-23T18:45:47.647Z,12.20
2019-02-23T18:48:15.223Z,12.10
2019-02-23T18:50:42.559Z,12.10
2019-02-23T18:53:09.924Z,12.10
2019-02-23T18:55:41.146Z,12.10
2019-02-23T18:58:06.598Z,12.00
2019-02-23T19:00:34.035Z,12.00
2019-02-23T19:03:01.403Z,11.90
2019-02-23T19:05:28.753Z,11.90
2019-02-23T19:07:56.146Z,11.90
2019-02-23T19:10:23.507Z,11.80
2019-02-23T19:12:50.838Z,11.80
2019-02-23T19:15:18.282Z,11.80
2019-02-23T19:17:45.743Z,11.80
2019-02-23T19:20:13.101Z,11.80
2019-02-23T19:22:40.485Z,11.60
2019-02-23T19:25:09.477Z,11.60
2019-02-23T19:27:37.384Z,11.60
2019-02-23T19:30:06.187Z,11.60
2019-02-23T19:32:33.543Z,11.60
2019-02-23T19:35:00.954Z,11.50
2019-02-23T19:37:28.367Z,11.40
2019-02-23T19:39:55.727Z,11.40
2019-02-23T19:42:23.079Z,11.30
2019-02-23T19:44:51.236Z,11.30
2019-02-23T19:47:22.156Z,11.30
2019-02-23T19:49:51.822Z,11.30
2019-02-23T19:52:21.950Z,11.20
2019-02-23T19:54:49.278Z,10.70
2019-02-23T19:57:16.634Z,11.20
2019-02-23T19:59:43.993Z,11.10
2019-02-23T20:02:11.371Z,11.10
2019-02-23T20:04:38.743Z,11.00
2019-02-23T20:07:06.130Z,11.00
2019-02-23T20:09:33.547Z,10.90
2019-02-23T20:12:00.975Z,10.90
2019-02-23T20:14:28.295Z,10.90
2019-02-23T20:16:55.612Z,10.90
2019-02-23T20:19:22.974Z,10.90
2019-02-23T20:21:50.286Z,10.80
2019-02-23T20:24:17.635Z,10.90
2019-02-23T20:26:45.086Z,10.80
2019-02-23T20:29:12.415Z,10.90
2019-02-23T20:31:39.899Z,10.80
2019-02-23T20:34:07.428Z,10.70
2019-02-23T20:36:34.903Z,10.70
2019-02-23T20:39:03.260Z,10.70
2019-02-23T20:41:30.616Z,10.70
2019-02-23T20:43:57.959Z,10.70
2019-02-23T20:46:25.291Z,10.60
2019-02-23T20:48:53.047Z,10.60
2019-02-23T20:51:20.389Z,10.60
2019-02-23T20:53:47.870Z,10.60
2019-02-23T20:56:15.356Z,10.60
2019-02-23T20:58:42.647Z,10.50
2019-02-23T21:01:09.963Z,10.50
2019-02-23T21:03:37.341Z,10.50
2019-02-23T21:06:04.690Z,10.40
2019-02-23T21:08:32.095Z,10.50
2019-02-23T21:11:18.580Z,10.50
2019-02-23T21:13:45.954Z,9.90
2019-02-23T21:16:13.262Z,10.40
2019-02-23T21:18:40.638Z,10.40
2019-02-23T21:21:07.954Z,10.30
2019-02-23T21:23:35.264Z,10.30
2019-02-23T21:26:02.630Z,10.30
2019-02-23T21:28:49.478Z,10.30
2019-02-23T21:31:36.292Z,9.70
2019-02-23T21:34:03.632Z,9.90
2019-02-23T21:36:50.484Z,10.20
2019-02-23T21:39:19.823Z,10.00
2019-02-23T21:41:47.160Z,10.10
2019-02-23T21:44:14.497Z,10.20
2019-02-23T21:46:41.814Z,10.10
2019-02-23T21:49:09.164Z,10.00
2019-02-23T21:51:36.506Z,10.00
2019-02-23T21:54:23.331Z,10.00
2019-02-23T21:57:10.571Z,9.70
2019-02-23T21:59:37.924Z,9.80
2019-02-23T22:02:05.285Z,9.90
2019-02-23T22:04:32.732Z,9.90
2019-02-23T22:07:00.134Z,9.90
2019-02-23T22:09:27.468Z,9.90
2019-02-23T22:11:54.889Z,9.80
2019-02-23T22:14:22.217Z,9.70
2019-02-23T22:16:49.579Z,9.70
2019-02-23T22:19:17.076Z,9.70
2019-02-23T22:21:44.524Z,9.70
2019-02-23T22:24:11.935Z,9.70
2019-02-23T22:26:39.280Z,9.70
2019-02-23T22:29:06.695Z,9.60
2019-02-23T22:31:34.040Z,9.60
2019-02-23T22:34:01.498Z,9.60
2019-02-23T22:36:28.815Z,9.60
2019-02-23T22:38:56.141Z,9.60
2019-02-23T22:41:23.588Z,9.50
2019-02-23T22:43:50.894Z,8.60
2019-02-23T22:46:25.623Z,9.40
2019-02-23T22:48:52.991Z,9.10
2019-02-23T22:51:20.294Z,9.40
2019-02-23T22:53:47.731Z,9.40
2019-02-23T22:56:15.055Z,9.30
2019-02-23T22:58:42.425Z,9.30
2019-02-23T23:01:10.117Z,9.30
2019-02-23T23:03:37.558Z,9.30
2019-02-23T23:06:04.882Z,9.20
2019-02-23T23:08:32.344Z,9.20
2019-02-23T23:11:19.166Z,9.20
2019-02-23T23:13:59.493Z,8.30
2019-02-23T23:16:26.827Z,8.80
2019-02-23T23:18:54.163Z,9.10
2019-02-23T23:21:21.528Z,9.10
2019-02-23T23:23:48.860Z,9.00
2019-02-23T23:26:16.314Z,9.00
2019-02-23T23:28:43.675Z,9.00
2019-02-23T23:31:10.970Z,9.00
2019-02-23T23:33:38.304Z,9.00
2019-02-23T23:36:05.638Z,9.00
2019-02-23T23:38:32.955Z,9.00
2019-02-23T23:41:19.738Z,9.00
2019-02-23T23:43:47.073Z,8.20
2019-02-23T23:46:34.167Z,8.90
2019-02-23T23:51:46.575Z,8.30
2019-02-23T23:54:13.899Z,8.80
2019-02-23T23:56:41.263Z,8.80
2019-02-23T23:59:08.651Z,8.80
